Track Каменев Максим

Time Latitude Longitude Accuracy (66% radius in meters) Altitude (meters) Speed (km/hour) Bearing (degrees) Battery (%) GPS flag
12:47:16 57.058261 39.389588 2.5 170.60000610352 0.83999997377396 341.22436523438 3 1 delete
12:47:01 57.058135 39.389601 4 169.80000305176 0 0 3 1 delete
12:46:55 57.058039 39.389620 10 180.19999694824 0.079999998211861 332.05627441406 3 1 delete
12:36:34 57.053908 39.392007 3 165 0 0 4 1 delete
12:36:24 57.053814 39.392010 3 162.19999694824 0.6599999666214 336.68701171875 4 1 delete
12:36:13 57.053722 39.392091 9.5 166.89999389648 0.72999995946884 2.5213623046875 4 1 delete
12:25:54 57.048246 39.391639 2.5 164.10000610352 0.77999997138977 336.45080566406 4 1 delete
12:25:39 57.048124 39.391676 2.5 165 0.48999997973442 343.10852050781 4 1 delete
12:25:34 57.048083 39.391705 3 165.19999694824 0.5 335.14343261719 4 1 delete
12:25:29 57.048042 39.391773 3 168.5 0.55000001192093 333.17138671875 4 1 delete
12:25:13 57.047953 39.391964 8.5 172.39999389648 0.39999997615814 235.60180664062 4 1 delete
12:15:03 57.043349 39.398681 2 162 0.95999997854233 296.630859375 6 1 delete
12:14:58 57.043332 39.398747 2 161.19999694824 0.87000000476837 285.23254394531 6 1 delete
12:14:53 57.043308 39.398843 2 160.5 1.0900000333786 288.95690917969 6 1 delete
12:14:37 57.043253 39.399076 7 162.69999694824 1.0199999809265 282.80456542969 6 1 delete
12:04:22 57.038398 39.404149 1.5 171.39999389648 1.1399999856949 359.91760253906 6 1 delete
12:04:12 57.038308 39.404145 2 171 0.9899999499321 358.39599609375 6 1 delete
12:04:01 57.038177 39.404176 9 175.60000610352 1.1299999952316 351.76025390625 6 1 delete
11:53:49 57.032556 39.400821 1 170.80000305176 1.2599999904633 354.40795898438 7 1 delete
11:53:44 57.032498 39.400839 1 172.89999389648 1.3099999427795 358.21472167969 7 1 delete
11:53:39 57.032452 39.400845 1 172.80000305176 1.1599999666214 355.10559082031 7 1 delete
11:53:29 57.032340 39.400863 1 172.30000305176 1.2699999809265 354.05090332031 7 1 delete
11:53:19 57.032238 39.400883 1 173.30000305176 1.1599999666214 354.81994628906 7 1 delete
11:53:09 57.032122 39.400919 1.5 172.60000610352 1.1699999570847 355.84716796875 7 1 delete
11:52:59 57.032022 39.400922 1.5 173 1.2099999189377 1.9390869140625 7 1 delete
11:52:49 57.031901 39.400937 1.5 173.80000305176 1.1899999380112 353.408203125 7 1 delete
11:52:39 57.031807 39.400969 1.5 172.69999694824 0.94999998807907 357.44018554688 7 1 delete
11:52:34 57.031752 39.400972 1.5 172.5 0.97999995946884 358.50036621094 7 1 delete
11:52:29 57.031691 39.400968 1.5 173.5 0.87999999523163 352.27111816406 7 1 delete
11:52:13 57.031574 39.400951 8.5 175.19999694824 0.89999997615814 352.25463867188 7 1 delete
11:41:58 57.025138 39.399663 1.5 164.39999389648 1.039999961853 6.70166015625 8 1 delete
11:41:48 57.025024 39.399667 1.5 163.69999694824 0.88999998569489 352.72705078125 8 1 delete
11:41:37 57.024923 39.399683 9.5 178 0.75 7.9156494140625 8 1 delete
11:31:28 57.019536 39.403965 1.5 170.10000610352 1.1399999856949 248.57666015625 8 1 delete
11:31:18 57.019579 39.404158 1.5 171.19999694824 1.2400000095367 250.80139160156 8 1 delete
11:31:07 57.019622 39.404326 7 176.5 1.0199999809265 256.31652832031 8 1 delete
11:20:57 57.015408 39.410400 1.5 169.60000610352 1.2599999904633 332.8857421875 9 1 delete
11:20:52 57.015361 39.410444 1.5 171 1.3500000238419 335.72570800781 9 1 delete
11:20:47 57.015307 39.410483 1.5 172.30000305176 1.25 338.1591796875 9 1 delete
11:20:37 57.015209 39.410556 2 172.89999389648 1.3500000238419 346.36047363281 9 1 delete
11:20:31 57.015115 39.410628 7.5 182.39999389648 1.4099999666214 349.24438476562 9 1 delete
11:10:21 57.010052 39.405832 1.5 178.10000610352 1.3099999427795 14.067993164062 9 1 delete
11:10:11 57.009956 39.405801 1.5 177.60000610352 0.9899999499321 11.42578125 9 1 delete
11:09:55 57.009831 39.405697 7.5 179.60000610352 1.1100000143051 0.142822265625 9 1 delete
10:59:46 57.003712 39.405266 1.5 178.10000610352 1.0599999427795 354.23767089844 10 1 delete
10:59:36 57.003595 39.405284 1.5 179.39999389648 1.0499999523163 352.28210449219 10 1 delete
10:59:25 57.003489 39.405307 8 184.30000305176 0.89999997615814 352.44140625 10 1 delete
10:49:10 56.997593 39.408319 1.5 190.69999694824 0.81999999284744 340.05981445312 10 1 delete
10:49:00 56.997506 39.408391 1.5 190.80000305176 0.93999999761581 331.35864257812 10 1 delete
10:48:49 56.997400 39.408470 8 195.10000610352 0.94999998807907 340.86730957031 10 1 delete